createdAt,value
2018-11-20T00:00:58.568Z,7.7
2018-11-20T00:03:16.189Z,7.9
2018-11-20T00:04:17.237Z,7.9
2018-11-20T00:05:19.736Z,7.9
2018-11-20T00:06:21.025Z,7.9
2018-11-20T00:07:22.240Z,7.9
2018-11-20T00:08:23.458Z,7.9
2018-11-20T00:09:25.003Z,7.9
2018-11-20T00:10:26.389Z,7.9
2018-11-20T00:11:27.765Z,7.3
2018-11-20T00:12:29.310Z,7.4
2018-11-20T00:13:30.698Z,7.5
2018-11-20T00:14:32.256Z,7.6
2018-11-20T00:15:33.295Z,7.7
2018-11-20T00:16:34.333Z,7.7
2018-11-20T00:17:35.875Z,7.7
2018-11-20T00:18:37.407Z,7.7
2018-11-20T00:19:38.627Z,7.7
2018-11-20T00:20:40.178Z,7.7
2018-11-20T00:21:41.710Z,7.7
2018-11-20T00:22:43.269Z,7.7
2018-11-20T00:23:44.641Z,7.7
2018-11-20T00:24:46.017Z,7.7
2018-11-20T00:25:47.407Z,7.8
2018-11-20T00:26:48.616Z,7.8
2018-11-20T00:27:49.999Z,7.8
2018-11-20T00:28:51.377Z,7.8
2018-11-20T00:29:52.425Z,7.8
2018-11-20T00:30:53.963Z,7.8
2018-11-20T00:31:55.194Z,7.8
2018-11-20T00:32:56.389Z,7.8
2018-11-20T00:33:57.777Z,7.8
2018-11-20T00:34:59.155Z,7.8
2018-11-20T00:36:00.690Z,7.7
2018-11-20T00:37:02.085Z,7.7
2018-11-20T00:38:03.617Z,7.7
2018-11-20T00:39:05.163Z,7.6
2018-11-20T00:40:06.544Z,7.6
2018-11-20T00:41:07.907Z,7.5
2018-11-20T00:42:09.497Z,7.5
2018-11-20T00:43:10.704Z,7.4
2018-11-20T00:44:11.937Z,7.4
2018-11-20T00:45:13.158Z,7.3
2018-11-20T00:46:14.527Z,7.3
2018-11-20T00:47:15.926Z,7.3
2018-11-20T00:48:16.806Z,7.3
2018-11-20T00:49:18.028Z,7.2
2018-11-20T00:50:19.086Z,7.3
2018-11-20T00:51:20.461Z,7.3
2018-11-20T00:52:21.675Z,7.3
2018-11-20T00:53:22.733Z,7.4
2018-11-20T00:54:24.273Z,7.4
2018-11-20T00:55:25.472Z,7.5
2018-11-20T00:56:26.843Z,7.5
2018-11-20T00:57:28.059Z,7.5
2018-11-20T00:58:29.291Z,7.6
2018-11-20T00:59:30.728Z,7.6
2018-11-20T01:00:31.916Z,7.6
2018-11-20T01:01:33.298Z,7.6
2018-11-20T01:02:34.668Z,7.6
2018-11-20T01:03:36.044Z,7.6
2018-11-20T01:04:37.276Z,7.6
2018-11-20T01:05:38.838Z,7.6
2018-11-20T01:06:39.878Z,7.6
2018-11-20T01:07:41.437Z,7.6
2018-11-20T01:08:42.671Z,7.6
2018-11-20T01:09:44.052Z,7.6
2018-11-20T01:10:45.423Z,7.6
2018-11-20T01:11:46.627Z,7.6
2018-11-20T01:12:47.833Z,7.7
2018-11-20T01:13:48.878Z,7.7
2018-11-20T01:14:50.104Z,7.7
2018-11-20T01:15:51.488Z,7.7
2018-11-20T01:16:52.880Z,7.8
2018-11-20T01:17:54.449Z,7.8
2018-11-20T01:18:55.647Z,7.8
2018-11-20T01:19:57.204Z,7.8
2018-11-20T01:20:58.408Z,7.9
2018-11-20T01:21:59.756Z,7.9
2018-11-20T01:23:01.120Z,7.9
2018-11-20T01:24:02.326Z,7.9
2018-11-20T01:25:03.707Z,7.9
2018-11-20T01:26:05.250Z,7.9
2018-11-20T01:27:06.507Z,7.9
2018-11-20T01:28:07.885Z,7.9
2018-11-20T01:29:09.100Z,7.9
2018-11-20T01:30:10.333Z,7.9
2018-11-20T01:31:11.541Z,7.9
2018-11-20T01:32:12.925Z,7.9
2018-11-20T01:33:14.455Z,7.8
2018-11-20T01:34:15.829Z,7.8
2018-11-20T01:35:17.036Z,7.8
2018-11-20T01:36:18.575Z,7.8
2018-11-20T01:37:19.947Z,7.8
2018-11-20T01:38:21.000Z,7.8
2018-11-20T01:39:22.377Z,7.9
2018-11-20T01:40:23.599Z,7.9
2018-11-20T01:41:25.727Z,7.9
2018-11-20T01:42:26.812Z,7.8
2018-11-20T01:43:27.859Z,7.8
2018-11-20T01:44:28.899Z,7.8
2018-11-20T01:45:30.277Z,7.8
2018-11-20T01:46:31.677Z,7.8
2018-11-20T01:47:33.218Z,7.8
2018-11-20T01:48:34.604Z,7.8
2018-11-20T01:49:35.632Z,7.8
2018-11-20T01:50:37.168Z,7.8
2018-11-20T01:51:38.585Z,7.8
2018-11-20T01:52:39.973Z,7.8
2018-11-20T01:53:41.209Z,7.8
2018-11-20T01:54:42.743Z,7.8
2018-11-20T01:55:44.118Z,7.8
2018-11-20T01:56:45.499Z,7.7
2018-11-20T01:57:47.037Z,7.7
2018-11-20T01:58:48.583Z,7.7
2018-11-20T01:59:49.977Z,7.6
2018-11-20T02:00:51.352Z,7.6
2018-11-20T02:01:52.581Z,7.6
2018-11-20T02:02:54.189Z,7.6
2018-11-20T02:03:55.709Z,7.6
2018-11-20T02:04:56.928Z,7.4
2018-11-20T02:05:58.127Z,7.3
2018-11-20T02:06:59.657Z,7.2
2018-11-20T02:08:01.039Z,7.1
2018-11-20T02:09:02.407Z,7.1
2018-11-20T02:10:03.829Z,7.1
2018-11-20T02:11:05.204Z,7.1
2018-11-20T02:12:06.585Z,7.1
2018-11-20T02:13:08.128Z,7.1
2018-11-20T02:14:09.187Z,7.2
2018-11-20T02:15:10.379Z,7.2
2018-11-20T02:16:11.748Z,7.2
2018-11-20T02:17:12.458Z,7.2
2018-11-20T02:18:13.838Z,7.2
2018-11-20T02:19:14.886Z,7.2
2018-11-20T02:20:16.254Z,7.2
2018-11-20T02:21:17.614Z,7.2
2018-11-20T02:22:19.161Z,7.2
2018-11-20T02:23:20.538Z,7.1
2018-11-20T02:24:21.988Z,7.1
2018-11-20T02:25:23.212Z,7.1
2018-11-20T02:26:24.947Z,7.1
2018-11-20T02:27:26.330Z,7.1
2018-11-20T02:28:27.545Z,7.1
2018-11-20T02:29:28.938Z,7.1
2018-11-20T02:30:29.994Z,7.1
2018-11-20T02:31:31.059Z,7.1
2018-11-20T02:32:32.288Z,7.1
2018-11-20T02:33:33.498Z,7.1
2018-11-20T02:34:34.878Z,7.1
2018-11-20T02:35:36.080Z,7.1
2018-11-20T02:36:37.644Z,7.1
2018-11-20T02:37:39.167Z,7.1
2018-11-20T02:38:40.538Z,7.1
2018-11-20T02:39:41.739Z,7.1
2018-11-20T02:40:43.291Z,7.1
2018-11-20T02:41:44.658Z,7.1
2018-11-20T02:42:45.867Z,7.1
2018-11-20T02:43:47.092Z,7.1
2018-11-20T02:44:48.302Z,7.1
2018-11-20T02:45:49.498Z,7.1
2018-11-20T02:46:51.326Z,7.1
2018-11-20T02:47:52.569Z,7.1
2018-11-20T02:48:54.106Z,7.1
2018-11-20T02:49:55.472Z,7.2
2018-11-20T02:50:56.847Z,7.1
2018-11-20T02:51:58.073Z,7.2
2018-11-20T02:52:59.267Z,7.2
2018-11-20T02:54:00.486Z,7.2
2018-11-20T02:55:01.875Z,7.2
2018-11-20T02:56:03.246Z,7.2
2018-11-20T02:57:04.448Z,7.2
2018-11-20T02:58:05.810Z,7.2
2018-11-20T02:59:07.071Z,7.2
2018-11-20T03:00:08.485Z,7.2
2018-11-20T03:01:10.012Z,7.2
2018-11-20T03:02:11.217Z,7.2
2018-11-20T03:03:12.589Z,7.2
2018-11-20T03:04:14.124Z,7.2
2018-11-20T03:05:15.670Z,7.2
2018-11-20T03:06:17.218Z,7.2
2018-11-20T03:07:18.744Z,7.2
2018-11-20T03:08:19.949Z,7.2
2018-11-20T03:09:21.327Z,7.2
2018-11-20T03:10:22.858Z,7.2
2018-11-20T03:11:24.068Z,7.2
2018-11-20T03:12:25.436Z,7.2
2018-11-20T03:13:26.816Z,7.2
2018-11-20T03:14:28.359Z,7.2
2018-11-20T03:15:29.891Z,7.2
2018-11-20T03:16:30.948Z,7.2
2018-11-20T03:17:31.992Z,7.2
2018-11-20T03:18:33.523Z,7.2
2018-11-20T03:19:34.909Z,7.2
2018-11-20T03:20:36.114Z,7.2
2018-11-20T03:21:37.463Z,7.2
2018-11-20T03:22:38.678Z,7.2
2018-11-20T03:23:40.063Z,7.2
2018-11-20T03:24:41.439Z,7.2
2018-11-20T03:25:42.856Z,7.2
2018-11-20T03:26:44.014Z,7.2
2018-11-20T03:27:45.557Z,7.2
2018-11-20T03:28:46.919Z,7.3
2018-11-20T03:29:48.469Z,7.2
2018-11-20T03:30:49.686Z,7.3
2018-11-20T03:31:51.243Z,7.3
2018-11-20T03:32:52.774Z,7.3
2018-11-20T03:33:53.811Z,7.3
2018-11-20T03:34:55.188Z,7.3
2018-11-20T03:35:57.031Z,7.2
2018-11-20T03:36:58.574Z,7.2
2018-11-20T03:37:59.951Z,7.2
2018-11-20T03:39:01.491Z,7.2
2018-11-20T03:40:02.912Z,7.2
2018-11-20T03:41:04.139Z,7.3
2018-11-20T03:42:05.537Z,7.3
2018-11-20T03:43:06.897Z,7.3
2018-11-20T03:44:08.128Z,7.3
2018-11-20T03:45:09.518Z,7.3
2018-11-20T03:46:10.902Z,7.3
2018-11-20T03:47:12.437Z,7.3
2018-11-20T03:48:13.982Z,7.3
2018-11-20T03:49:15.169Z,7.2
2018-11-20T03:50:16.390Z,7.2
2018-11-20T03:51:17.281Z,7.2
2018-11-20T03:52:18.649Z,7.2
2018-11-20T03:53:20.021Z,7.2
2018-11-20T03:54:21.249Z,7.2
2018-11-20T03:55:22.815Z,7.3
2018-11-20T03:56:23.689Z,7.3
2018-11-20T03:57:25.215Z,7.3
2018-11-20T03:58:26.629Z,7.3
2018-11-20T03:59:28.005Z,7.3
2018-11-20T04:00:29.391Z,7.2
2018-11-20T04:01:30.751Z,7.2
2018-11-20T04:02:32.129Z,7.2
2018-11-20T04:03:33.688Z,7.2
2018-11-20T04:04:35.074Z,7.2
2018-11-20T04:05:36.278Z,7.2
2018-11-20T04:06:37.651Z,7.2
2018-11-20T04:07:39.218Z,7.2
2018-11-20T04:08:40.601Z,7.2
2018-11-20T04:09:42.145Z,7.2
2018-11-20T04:10:43.519Z,7.2
2018-11-20T04:11:44.718Z,7.2
2018-11-20T04:12:46.102Z,7.2
2018-11-20T04:13:47.311Z,7.2
2018-11-20T04:14:48.518Z,7.2
2018-11-20T04:15:49.896Z,7.2
2018-11-20T04:16:51.111Z,7.2
2018-11-20T04:17:53.121Z,7.2
2018-11-20T04:18:54.727Z,7.1
2018-11-20T04:19:56.268Z,7.2
2018-11-20T04:20:57.849Z,7.1
2018-11-20T04:21:58.898Z,7.1
2018-11-20T04:23:00.451Z,7.1
2018-11-20T04:24:01.326Z,7.2
2018-11-20T04:25:02.883Z,7.2
2018-11-20T04:26:04.239Z,7.2
2018-11-20T04:27:05.757Z,7.2
2018-11-20T04:28:07.151Z,7.2
2018-11-20T04:29:08.191Z,7.2
2018-11-20T04:30:09.249Z,7.2
2018-11-20T04:31:10.627Z,7.2
2018-11-20T04:32:12.013Z,7.2
2018-11-20T04:33:13.565Z,7.2
2018-11-20T04:34:14.600Z,7.2
2018-11-20T04:35:17.077Z,7.3
2018-11-20T04:36:18.459Z,7.3
2018-11-20T04:37:19.661Z,7.4
2018-11-20T04:38:21.193Z,7.5
2018-11-20T04:39:22.558Z,7.5
2018-11-20T04:40:23.931Z,7.6
2018-11-20T04:41:26.006Z,7.7
2018-11-20T04:42:27.548Z,7.8
2018-11-20T04:43:28.761Z,7.8
2018-11-20T04:44:30.293Z,7.9
2018-11-20T04:45:31.837Z,7.9
2018-11-20T04:46:32.935Z,7.9
2018-11-20T04:47:34.311Z,7.9
2018-11-20T04:48:35.844Z,7.9
2018-11-20T04:49:37.349Z,7.9
2018-11-20T04:50:38.564Z,7.9
2018-11-20T04:51:40.109Z,7.9
2018-11-20T04:52:41.482Z,7.9
2018-11-20T04:53:42.856Z,7.9
2018-11-20T04:54:44.393Z,7.9
2018-11-20T04:55:45.773Z,7.9
2018-11-20T04:56:47.325Z,7.9
2018-11-20T04:57:49.329Z,7.9
2018-11-20T04:58:50.852Z,7.8
2018-11-20T04:59:51.888Z,7.8
2018-11-20T05:00:53.279Z,7.8
2018-11-20T05:01:54.823Z,7.9
2018-11-20T05:02:56.347Z,7.9
2018-11-20T05:03:57.899Z,7.8
2018-11-20T05:04:59.419Z,7.8
2018-11-20T05:06:01.015Z,7.8
2018-11-20T05:07:02.447Z,7.8
2018-11-20T05:08:03.653Z,7.8
2018-11-20T05:09:05.188Z,7.8
2018-11-20T05:10:06.779Z,7.8
2018-11-20T05:11:08.329Z,7.7
2018-11-20T05:12:09.541Z,7.7
2018-11-20T05:13:11.592Z,7.7
2018-11-20T05:14:13.148Z,7.6
2018-11-20T05:15:14.527Z,7.6
2018-11-20T05:16:16.080Z,7.6
2018-11-20T05:17:17.621Z,7.6
2018-11-20T05:18:19.157Z,7.6
2018-11-20T05:19:20.681Z,7.5
2018-11-20T05:20:22.225Z,7.5
2018-11-20T05:21:23.769Z,7.5
2018-11-20T05:22:24.969Z,7.5
2018-11-20T05:23:26.357Z,7.4
2018-11-20T05:24:27.415Z,7.4
2018-11-20T05:25:28.805Z,7.4
2018-11-20T05:26:30.019Z,7.4
2018-11-20T05:27:31.410Z,7.3
2018-11-20T05:28:32.958Z,7.3
2018-11-20T05:29:34.507Z,7.3
2018-11-20T05:30:36.050Z,7.3
2018-11-20T05:31:37.106Z,7.2
2018-11-20T05:32:38.662Z,7.2
2018-11-20T05:33:39.867Z,7.2
2018-11-20T05:34:41.245Z,7.2
2018-11-20T05:35:42.642Z,7.2
2018-11-20T05:36:43.860Z,7.2
2018-11-20T05:37:45.433Z,7.2
2018-11-20T05:38:46.659Z,7.2
2018-11-20T05:39:48.025Z,7.2
2018-11-20T05:40:49.431Z,7.2
2018-11-20T05:41:50.823Z,7.2
2018-11-20T05:42:52.209Z,7.2
2018-11-20T05:43:53.429Z,7.2
2018-11-20T05:44:54.643Z,7.2
2018-11-20T05:45:56.041Z,7.2
2018-11-20T05:46:58.200Z,7.2
2018-11-20T05:47:59.671Z,7.2
2018-11-20T05:49:01.217Z,7.2
2018-11-20T05:50:02.601Z,7.2
2018-11-20T05:51:03.812Z,7.2
2018-11-20T05:52:05.035Z,7.3
2018-11-20T05:53:06.567Z,7.3
2018-11-20T05:54:07.797Z,7.4
2018-11-20T05:55:09.023Z,7.4
2018-11-20T05:56:10.393Z,7.5
2018-11-20T05:57:11.427Z,7.5
2018-11-20T05:58:13.246Z,7.5
2018-11-20T05:59:14.894Z,7.5
2018-11-20T06:00:16.438Z,7.4
2018-11-20T06:01:17.822Z,7.4
2018-11-20T06:02:19.208Z,7.3
2018-11-20T06:03:20.748Z,7.2
2018-11-20T06:04:21.622Z,7.2
2018-11-20T06:05:22.837Z,7.2
2018-11-20T06:06:24.220Z,7.2
2018-11-20T06:07:25.468Z,7.2
2018-11-20T06:08:26.528Z,7.2
2018-11-20T06:09:27.898Z,7.2
2018-11-20T06:10:29.134Z,7.2
2018-11-20T06:11:30.508Z,7.2
2018-11-20T06:12:46.923Z,7.2
2018-11-20T06:13:48.368Z,7.2
2018-11-20T06:14:49.088Z,7.2
2018-11-20T06:15:50.626Z,7.3
2018-11-20T06:16:52.009Z,7.3
2018-11-20T06:17:53.235Z,7.4
2018-11-20T06:18:54.341Z,7.5
2018-11-20T06:19:55.781Z,7.6
2018-11-20T06:20:57.355Z,7.6
2018-11-20T06:21:58.750Z,7.7
2018-11-20T06:22:59.957Z,7.8
2018-11-20T06:24:01.338Z,7.8
2018-11-20T06:25:02.415Z,7.8
2018-11-20T06:26:03.966Z,7.8
2018-11-20T06:27:05.028Z,7.8
2018-11-20T06:28:06.248Z,7.8
2018-11-20T06:29:08.252Z,7.8
2018-11-20T06:30:09.423Z,7.6
2018-11-20T06:31:10.472Z,7.6
2018-11-20T06:32:11.698Z,7.6
2018-11-20T06:33:12.939Z,7.6
2018-11-20T06:34:14.539Z,7.6
2018-11-20T06:35:15.756Z,7.7
2018-11-20T06:36:17.308Z,7.7
2018-11-20T06:37:18.839Z,7.7
2018-11-20T06:38:20.424Z,7.8
2018-11-20T06:39:22.076Z,7.8
2018-11-20T06:40:23.669Z,7.9
2018-11-20T06:41:25.937Z,7.9
2018-11-20T06:42:27.617Z,7.9
2018-11-20T06:43:28.988Z,7.9
2018-11-20T06:44:30.363Z,7.9
2018-11-20T06:45:31.738Z,7.9
2018-11-20T06:46:33.118Z,7.9
2018-11-20T06:47:34.650Z,7.9
2018-11-20T06:48:36.188Z,7.9
2018-11-20T06:49:37.398Z,7.9
2018-11-20T06:50:38.772Z,7.8
2018-11-20T06:51:40.180Z,7.8
2018-11-20T06:52:42.028Z,7.8
2018-11-20T06:53:44.597Z,7.8
2018-11-20T06:54:46.047Z,7.8
2018-11-20T06:55:47.612Z,7.8
2018-11-20T06:56:49.167Z,7.8
2018-11-20T06:57:50.566Z,7.8
2018-11-20T06:58:51.790Z,7.8
2018-11-20T06:59:53.001Z,7.8
2018-11-20T07:00:54.386Z,7.7
2018-11-20T07:01:55.945Z,7.7
2018-11-20T07:02:57.319Z,7.7
2018-11-20T07:03:58.390Z,7.7
2018-11-20T07:04:59.829Z,7.7
2018-11-20T07:06:01.403Z,7.7
2018-11-20T07:07:03.141Z,7.7
2018-11-20T07:08:06.677Z,7.7
2018-11-20T07:09:08.182Z,7.7
2018-11-20T07:10:09.753Z,7.6
2018-11-20T07:11:11.299Z,7.6
2018-11-20T07:12:12.558Z,7.6
2018-11-20T07:13:14.084Z,7.6
2018-11-20T07:14:15.673Z,7.6
2018-11-20T07:15:18.058Z,7.5
2018-11-20T07:16:19.672Z,7.5
2018-11-20T07:17:21.303Z,7.5
2018-11-20T07:18:22.518Z,7.5
2018-11-20T07:19:24.067Z,7.5
2018-11-20T07:20:25.283Z,7.5
2018-11-20T07:21:26.827Z,7.5
2018-11-20T07:22:28.485Z,7.4
2018-11-20T07:23:29.722Z,7.4
2018-11-20T07:24:30.958Z,7.4
2018-11-20T07:25:32.335Z,7.4
2018-11-20T07:26:33.759Z,7.3
2018-11-20T07:27:35.140Z,7.2
2018-11-20T07:28:36.506Z,7.2
2018-11-20T07:29:37.577Z,7.2
2018-11-20T07:30:39.731Z,7.2
2018-11-20T07:31:41.875Z,7.2
2018-11-20T07:32:43.368Z,7.2
2018-11-20T07:33:44.920Z,7.2
2018-11-20T07:34:46.630Z,7.2
2018-11-20T07:35:47.702Z,7.2
2018-11-20T07:36:50.317Z,7.2
2018-11-20T07:37:51.216Z,7.2
2018-11-20T07:38:52.456Z,7.2
2018-11-20T07:39:53.848Z,7.2
2018-11-20T07:40:55.395Z,7.2
2018-11-20T07:41:56.620Z,7.2
2018-11-20T07:42:57.989Z,7.2
2018-11-20T07:44:00.173Z,7.2
2018-11-20T07:45:01.611Z,7.3
2018-11-20T07:46:02.840Z,7.3
2018-11-20T07:47:04.398Z,7.3
2018-11-20T07:48:05.943Z,7.3
2018-11-20T07:49:07.488Z,7.3
2018-11-20T07:50:09.066Z,7.3
2018-11-20T07:51:10.290Z,7.4
2018-11-20T07:52:11.343Z,7.4
2018-11-20T07:53:12.723Z,7.4
2018-11-20T07:54:13.775Z,7.4
2018-11-20T07:55:15.489Z,7.5
2018-11-20T07:56:18.362Z,7.5
2018-11-20T07:57:20.022Z,7.6
2018-11-20T07:58:21.611Z,7.7
2018-11-20T07:59:22.835Z,7.8
2018-11-20T08:00:23.889Z,7.9
2018-11-20T08:01:25.099Z,7.7
2018-11-20T08:02:27.460Z,7.8
2018-11-20T08:03:28.904Z,7.9
2018-11-20T08:04:30.285Z,7.9
2018-11-20T08:05:31.664Z,7.9
2018-11-20T08:06:33.034Z,7.9
2018-11-20T08:07:34.582Z,7.2
2018-11-20T08:08:37.018Z,7.4
2018-11-20T08:09:38.510Z,7.5
2018-11-20T08:10:39.684Z,7.6
2018-11-20T08:11:41.056Z,7.7
2018-11-20T08:12:42.445Z,7.8
2018-11-20T08:13:43.672Z,7.9
2018-11-20T08:14:44.738Z,7.9
2018-11-20T08:15:46.436Z,7.5
2018-11-20T08:16:48.008Z,7.6
2018-11-20T08:17:49.402Z,7.8
2018-11-20T08:18:50.789Z,7.9
2018-11-20T08:19:52.168Z,7.9
2018-11-20T08:20:53.710Z,7.9
2018-11-20T08:21:55.248Z,7.9
2018-11-20T08:22:56.806Z,7.9
2018-11-20T08:23:58.214Z,7.9
2018-11-20T08:24:59.428Z,7.3
2018-11-20T08:26:02.472Z,7.3
2018-11-20T08:27:03.970Z,7.3
2018-11-20T08:28:05.412Z,7.4
2018-11-20T08:29:06.968Z,7.4
2018-11-20T08:30:08.327Z,7.3
2018-11-20T08:31:10.405Z,7.3
2018-11-20T08:32:11.190Z,7.3
2018-11-20T08:33:12.732Z,7.3
2018-11-20T08:34:14.685Z,7.3
2018-11-20T08:35:16.857Z,7.3
2018-11-20T08:36:18.350Z,7.3
2018-11-20T08:37:20.583Z,7.2
2018-11-20T08:38:22.224Z,7.2
2018-11-20T08:39:23.439Z,7.2
2018-11-20T08:40:24.999Z,7.2
2018-11-20T08:41:26.225Z,7.2
2018-11-20T08:42:27.611Z,7.2
2018-11-20T08:43:29.159Z,7.2
2018-11-20T08:44:30.529Z,7.2
2018-11-20T08:45:31.919Z,7.2
2018-11-20T08:46:33.318Z,7.2
2018-11-20T08:47:35.081Z,7.2
2018-11-20T08:48:36.634Z,7.2
2018-11-20T08:49:37.696Z,7.2
2018-11-20T08:50:39.069Z,7.2
2018-11-20T08:51:40.454Z,7.2
2018-11-20T08:52:42.070Z,7.2
2018-11-20T08:53:43.759Z,7.2
2018-11-20T08:54:44.887Z,7.2
2018-11-20T08:55:46.288Z,7.2
2018-11-20T08:56:47.838Z,7.2
2018-11-20T08:57:49.063Z,7.2
2018-11-20T08:58:50.454Z,7.2
2018-11-20T08:59:51.697Z,7.2
2018-11-20T09:00:53.064Z,7.2
2018-11-20T09:01:54.620Z,7.2
2018-11-20T09:02:56.019Z,7.2
2018-11-20T09:03:57.425Z,7.2
2018-11-20T09:04:58.983Z,7.2
2018-11-20T09:06:00.358Z,7.2
2018-11-20T09:07:01.393Z,7.2
2018-11-20T09:08:02.938Z,7.2
2018-11-20T09:09:04.314Z,7.2
2018-11-20T09:10:06.675Z,7.2
2018-11-20T09:11:08.132Z,7.2
2018-11-20T09:12:09.535Z,7.2
2018-11-20T09:13:11.119Z,7.2
2018-11-20T09:14:12.331Z,7.1
2018-11-20T09:15:13.709Z,7.1
2018-11-20T09:16:15.108Z,7.1
2018-11-20T09:17:16.668Z,7.2
2018-11-20T09:18:18.231Z,7.1
2018-11-20T09:19:19.619Z,7.1
2018-11-20T09:20:21.659Z,7.2
2018-11-20T09:21:24.589Z,7.2
2018-11-20T09:22:26.210Z,7.2
2018-11-20T09:23:27.434Z,7.2
2018-11-20T09:24:28.829Z,7.2
2018-11-20T09:25:30.517Z,7.2
2018-11-20T09:26:32.079Z,7.2
2018-11-20T09:27:33.616Z,7.2
2018-11-20T09:28:34.997Z,7.2
2018-11-20T09:29:36.546Z,7.2
2018-11-20T09:30:37.930Z,7.2
2018-11-20T09:31:39.006Z,7.2
2018-11-20T09:32:40.382Z,7.3
2018-11-20T09:33:41.755Z,7.4
2018-11-20T09:34:43.125Z,7.4
2018-11-20T09:35:46.080Z,7.5
2018-11-20T09:36:47.151Z,7.6
2018-11-20T09:37:48.697Z,7.7
2018-11-20T09:38:49.897Z,7.8
2018-11-20T09:39:51.459Z,7.9
2018-11-20T09:40:53.018Z,7.2
2018-11-20T09:41:54.574Z,7.3
2018-11-20T09:42:56.137Z,7.4
2018-11-20T09:43:57.688Z,7.5
2018-11-20T09:44:58.919Z,7.6
2018-11-20T09:46:00.465Z,7.7
2018-11-20T09:47:02.469Z,7.7
2018-11-20T09:48:04.108Z,7.7
2018-11-20T09:49:05.661Z,7.8
2018-11-20T09:50:06.883Z,7.8
2018-11-20T09:51:08.246Z,7.8
2018-11-20T09:52:09.922Z,7.7
2018-11-20T09:53:11.412Z,7.7
2018-11-20T09:54:13.042Z,7.7
2018-11-20T09:55:14.647Z,7.6
2018-11-20T09:56:16.207Z,7.6
2018-11-20T09:57:17.607Z,7.6
2018-11-20T09:58:18.818Z,7.6
2018-11-20T09:59:20.912Z,7.5
2018-11-20T10:00:22.529Z,7.5
2018-11-20T10:01:24.096Z,7.5
2018-11-20T10:02:25.644Z,7.5
2018-11-20T10:03:27.123Z,7.6
2018-11-20T10:04:28.532Z,7.6
2018-11-20T10:05:29.908Z,7.6
2018-11-20T10:06:31.299Z,7.6
2018-11-20T10:07:32.767Z,7.6
2018-11-20T10:08:34.158Z,7.7
2018-11-20T10:09:35.751Z,7.7
2018-11-20T10:10:37.326Z,7.7
2018-11-20T10:11:38.895Z,7.8
2018-11-20T10:12:40.461Z,7.8
2018-11-20T10:13:42.016Z,7.9
2018-11-20T10:14:43.777Z,7.9
2018-11-20T10:15:45.010Z,7.9
2018-11-20T10:16:46.407Z,7.2
2018-11-20T10:17:47.638Z,7.3
2018-11-20T10:18:48.872Z,7.4
2018-11-20T10:19:50.258Z,7.4
2018-11-20T10:20:52.021Z,7.4
2018-11-20T10:21:53.715Z,7.5
2018-11-20T10:22:55.148Z,7.4
2018-11-20T10:23:56.787Z,7.4
2018-11-20T10:24:59.188Z,7.4
2018-11-20T10:26:01.435Z,7.4
2018-11-20T10:27:02.952Z,7.3
2018-11-20T10:28:04.675Z,7.2
2018-11-20T10:29:05.925Z,7.2
2018-11-20T10:30:07.316Z,7.2
2018-11-20T10:31:08.703Z,7.2
2018-11-20T10:32:10.311Z,7.2
2018-11-20T10:33:11.546Z,7.2
2018-11-20T10:34:12.949Z,7.2
2018-11-20T10:35:14.561Z,7.2
2018-11-20T10:36:16.119Z,7.2
2018-11-20T10:37:17.493Z,7.2
2018-11-20T10:38:18.887Z,7.2
2018-11-20T10:39:20.107Z,7.2
2018-11-20T10:40:21.835Z,7.2
2018-11-20T10:41:23.114Z,7.2
2018-11-20T10:42:24.505Z,7.2
2018-11-20T10:43:26.077Z,7.2
2018-11-20T10:44:27.456Z,7.2
2018-11-20T10:45:29.919Z,7.2
2018-11-20T10:46:31.567Z,7.2
2018-11-20T10:47:32.873Z,7.2
2018-11-20T10:48:34.122Z,7.2
2018-11-20T10:49:35.508Z,7.2
2018-11-20T10:50:36.598Z,7.2
2018-11-20T10:51:37.860Z,7.2
2018-11-20T10:52:39.553Z,7.2
2018-11-20T10:53:40.978Z,7.2
2018-11-20T10:54:42.515Z,7.2
2018-11-20T10:55:43.567Z,7.2
2018-11-20T10:56:45.124Z,7.2
2018-11-20T10:57:46.564Z,7.2
2018-11-20T10:58:47.778Z,7.2
2018-11-20T10:59:49.837Z,7.2
2018-11-20T11:00:50.648Z,7.2
2018-11-20T11:01:52.188Z,7.1
2018-11-20T11:02:53.733Z,7.1
2018-11-20T11:03:54.645Z,7.2
2018-11-20T11:04:56.927Z,7.2
2018-11-20T11:05:58.547Z,7.1
2018-11-20T11:07:02.460Z,7.2
2018-11-20T11:08:04.687Z,7.2
2018-11-20T11:09:06.073Z,7.2
2018-11-20T11:10:07.625Z,7.2
2018-11-20T11:11:08.837Z,7.2
2018-11-20T11:12:11.083Z,7.2
2018-11-20T11:13:12.528Z,7.2
2018-11-20T11:14:13.964Z,7.2
2018-11-20T11:15:15.336Z,7.3
2018-11-20T11:16:16.888Z,7.3
2018-11-20T11:17:18.292Z,7.4
2018-11-20T11:18:20.224Z,7.5
2018-11-20T11:19:21.827Z,7.6
2018-11-20T11:20:24.025Z,7.7
2018-11-20T11:21:25.658Z,7.8
2018-11-20T11:22:26.887Z,7.9
2018-11-20T11:23:27.948Z,7.4
2018-11-20T11:24:29.347Z,7.6
2018-11-20T11:25:30.568Z,7.7
2018-11-20T11:26:31.776Z,7.9
2018-11-20T11:27:33.167Z,7.9
2018-11-20T11:28:34.237Z,7.9
2018-11-20T11:29:35.847Z,7.9
2018-11-20T11:30:37.243Z,7.9
2018-11-20T11:31:38.315Z,7.9
2018-11-20T11:32:39.717Z,7.9
2018-11-20T11:33:41.095Z,7.9
2018-11-20T11:34:42.488Z,7.9
2018-11-20T11:35:43.572Z,7.9
2018-11-20T11:36:44.952Z,7.9
2018-11-20T11:37:46.010Z,7.9
2018-11-20T11:38:47.422Z,7.9
2018-11-20T11:39:48.646Z,7.9
2018-11-20T11:40:50.311Z,7.9
2018-11-20T11:41:51.708Z,7.9
2018-11-20T11:42:53.095Z,7.9
2018-11-20T11:43:54.512Z,7.9
2018-11-20T11:44:55.727Z,7.9
2018-11-20T11:45:56.766Z,7.9
2018-11-20T11:46:57.986Z,7.9
2018-11-20T11:47:59.718Z,7.9
2018-11-20T11:49:01.269Z,7.9
2018-11-20T11:50:02.367Z,7.9
2018-11-20T11:51:03.922Z,7.8
2018-11-20T11:52:05.508Z,7.8
2018-11-20T11:53:06.729Z,7.8
2018-11-20T11:54:07.793Z,7.8
2018-11-20T11:55:09.541Z,7.8
2018-11-20T11:56:10.768Z,7.8
2018-11-20T11:57:12.326Z,7.8
2018-11-20T11:58:18.892Z,7.8
2018-11-20T11:59:20.304Z,7.8
2018-11-20T12:00:21.855Z,7.8
2018-11-20T12:01:23.077Z,7.8
2018-11-20T12:03:25.044Z,7.8
2018-11-20T12:04:26.607Z,7.8
2018-11-20T12:05:27.994Z,7.9
2018-11-20T12:06:29.386Z,7.9
2018-11-20T12:07:30.964Z,7.9
2018-11-20T12:08:32.515Z,7.9
2018-11-20T12:09:34.062Z,7.9
2018-11-20T12:10:37.957Z,7.9
2018-11-20T12:11:39.165Z,7.9
2018-11-20T12:12:40.389Z,7.9
2018-11-20T12:13:41.783Z,7.8
2018-11-20T12:14:43.009Z,7.8
2018-11-20T12:15:44.549Z,7.8
2018-11-20T12:16:45.780Z,7.9
2018-11-20T12:17:47.363Z,7.9
2018-11-20T12:18:48.717Z,7.9
2018-11-20T12:19:49.951Z,7.9
2018-11-20T12:20:51.370Z,7.9
2018-11-20T12:21:52.586Z,7.9
2018-11-20T12:22:53.657Z,7.9
2018-11-20T12:23:55.198Z,7.9
2018-11-20T12:24:56.755Z,7.9
2018-11-20T12:25:58.137Z,7.9
2018-11-20T12:26:59.715Z,7.8
2018-11-20T12:28:01.242Z,7.8
2018-11-20T12:29:02.739Z,7.8
2018-11-20T12:30:03.789Z,7.8
2018-11-20T12:31:05.018Z,7.8
2018-11-20T12:32:09.639Z,7.8
2018-11-20T12:33:11.036Z,7.8
2018-11-20T12:34:12.608Z,7.8
2018-11-20T12:35:16.838Z,7.9
2018-11-20T12:36:17.926Z,7.9
2018-11-20T12:37:19.309Z,7.9
2018-11-20T12:38:21.184Z,7.2
2018-11-20T12:39:22.860Z,7.3
2018-11-20T12:40:24.268Z,7.4
2018-11-20T12:41:29.543Z,7.4
2018-11-20T12:42:30.929Z,7.3
2018-11-20T12:43:32.355Z,7.3
2018-11-20T12:44:33.392Z,7.3
2018-11-20T12:45:35.437Z,7.2
2018-11-20T12:46:37.025Z,7.2
2018-11-20T12:47:38.249Z,7.2
2018-11-20T12:48:41.558Z,7.1
2018-11-20T12:49:42.950Z,7.1
2018-11-20T12:50:48.102Z,7.1
2018-11-20T12:51:50.436Z,7.1
2018-11-20T12:52:51.675Z,7.1
2018-11-20T12:53:53.252Z,7.1
2018-11-20T12:54:54.645Z,7.1
2018-11-20T12:55:55.940Z,7.1
2018-11-20T12:56:57.153Z,7.1
2018-11-20T12:57:58.215Z,7.1
2018-11-20T12:58:59.594Z,7.1
2018-11-20T13:00:00.981Z,7.1
2018-11-20T13:01:02.391Z,7.1
2018-11-20T13:02:03.788Z,7.2
2018-11-20T13:03:05.160Z,7.1
2018-11-20T13:04:08.536Z,7.2
2018-11-20T13:05:10.620Z,7.2
2018-11-20T13:06:11.843Z,7.2
2018-11-20T13:07:13.408Z,7.2
2018-11-20T13:08:14.776Z,7.2
2018-11-20T13:09:16.328Z,7.3
2018-11-20T13:10:17.553Z,7.3
2018-11-20T13:11:33.813Z,7.3
2018-11-20T13:12:35.219Z,7.4
2018-11-20T13:13:38.190Z,7.4
2018-11-20T13:14:39.721Z,7.4
2018-11-20T13:15:41.156Z,7.5
2018-11-20T13:16:42.391Z,7.5
2018-11-20T13:17:43.769Z,7.5
2018-11-20T13:18:45.000Z,7.6
2018-11-20T13:19:46.385Z,7.6
2018-11-20T13:20:55.004Z,7.6
2018-11-20T13:21:56.557Z,7.7
2018-11-20T13:22:58.121Z,7.7
2018-11-20T13:23:59.718Z,7.8
2018-11-20T13:25:03.167Z,7.9
2018-11-20T13:26:04.547Z,7.9
2018-11-20T13:27:06.125Z,7.9
2018-11-20T13:28:07.189Z,7.9
2018-11-20T13:29:08.738Z,7.7
2018-11-20T13:30:10.299Z,7.8
2018-11-20T13:31:11.703Z,7.9
2018-11-20T13:32:13.276Z,7.9
2018-11-20T13:33:26.185Z,7.9
2018-11-20T13:34:30.162Z,7.9
2018-11-20T13:35:31.718Z,7.9
2018-11-20T13:36:33.100Z,7.9
2018-11-20T13:37:38.258Z,7.9
2018-11-20T13:38:54.339Z,7.9
2018-11-20T13:39:55.585Z,7.8
2018-11-20T13:40:57.154Z,7.8
2018-11-20T13:41:58.717Z,7.7
2018-11-20T13:43:00.116Z,7.6
2018-11-20T13:44:01.335Z,7.6
2018-11-20T13:45:02.893Z,7.6
2018-11-20T13:46:04.267Z,7.6
2018-11-20T13:47:05.827Z,7.6
2018-11-20T13:48:07.380Z,7.6
2018-11-20T13:49:08.973Z,7.6
2018-11-20T13:50:11.800Z,7.7
2018-11-20T13:51:13.237Z,7.7
2018-11-20T13:52:14.604Z,7.7
2018-11-20T13:53:15.864Z,7.7
2018-11-20T13:54:17.428Z,7.7
2018-11-20T13:55:18.655Z,7.7
2018-11-20T13:56:20.038Z,7.7
2018-11-20T13:57:21.608Z,7.6
2018-11-20T13:58:23.196Z,7.5
2018-11-20T13:59:24.754Z,7.5
2018-11-20T14:00:26.319Z,7.4
2018-11-20T14:01:27.359Z,7.4
2018-11-20T14:02:28.898Z,7.3
2018-11-20T14:03:30.178Z,7.3
2018-11-20T14:04:31.592Z,7.3
2018-11-20T14:05:32.820Z,7.2
2018-11-20T14:06:33.888Z,7.2
2018-11-20T14:07:35.097Z,7.2
2018-11-20T14:08:36.502Z,7.2
2018-11-20T14:09:37.920Z,7.2
2018-11-20T14:10:39.153Z,7.2